Time;durP1;ratioP1;P1;durP2;ratioP2;P2;SDS_P1;SDS_P2;PMS_P1;PMS_P2;Temp;Humidity;BMP_temperature;BMP_pressure;BME280_temperature;BME280_humidity;BME280_pressure;Samples;Min_cycle;Max_cycle;Signal;HPM_P1;HPM_P2
2021/06/21 00:00:56;;;;;;;9.23;7.53;;;;;;;;;;4992840;28;20093;-77
2021/06/21 00:03:22;;;;;;;8.23;7.43;;;;;;;;;;4991401;28;20853;-78
2021/06/21 00:05:47;;;;;;;11.55;7.57;;;;;;;;;;4992200;28;20076;-78
2021/06/21 00:08:13;;;;;;;10.43;7.97;;;;;;;;;;4993234;28;20056;-79
2021/06/21 00:10:39;;;;;;;9.18;7.32;;;;;;;;;;5008660;28;20148;-78
2021/06/21 00:13:04;;;;;;;8.00;7.05;;;;;;;;;;4993252;28;20026;-79
2021/06/21 00:15:30;;;;;;;9.02;8.23;;;;;;;;;;4991992;28;20161;-78
2021/06/21 00:17:56;;;;;;;8.73;7.93;;;;;;;;;;4992465;28;20050;-80
2021/06/21 00:20:23;;;;;;;8.20;7.40;;;;;;;;;;4992654;28;20497;-80
2021/06/21 00:22:49;;;;;;;10.75;7.93;;;;;;;;;;4994462;28;20026;-80
2021/06/21 00:25:15;;;;;;;11.27;7.72;;;;;;;;;;4993621;28;20718;-80
2021/06/21 00:27:41;;;;;;;8.70;7.80;;;;;;;;;;4992303;28;20034;-78
2021/06/21 00:30:10;;;;;;;9.18;8.25;;;;;;;;;;4991827;28;20027;-78
2021/06/21 00:32:38;;;;;;;9.77;7.72;;;;;;;;;;4992336;28;20027;-79
2021/06/21 00:35:04;;;;;;;8.02;7.22;;;;;;;;;;4991213;28;20506;-77
2021/06/21 00:37:30;;;;;;;8.82;7.93;;;;;;;;;;4991574;28;20034;-79
2021/06/21 00:39:55;;;;;;;9.70;7.68;;;;;;;;;;4991507;28;20026;-79
2021/06/21 00:42:21;;;;;;;14.73;8.63;;;;;;;;;;4992768;28;20503;-80
2021/06/21 00:44:46;;;;;;;11.57;7.90;;;;;;;;;;4992276;28;20022;-78
2021/06/21 00:47:13;;;;;;;8.77;7.88;;;;;;;;;;4993300;28;20093;-78
2021/06/21 00:49:40;;;;;;;10.23;7.65;;;;;;;;;;4992403;28;20101;-79
2021/06/21 00:52:06;;;;;;;9.63;8.52;;;;;;;;;;4991072;28;20034;-78
2021/06/21 00:54:32;;;;;;;10.98;8.32;;;;;;;;;;4992239;28;20019;-79
2021/06/21 00:56:57;;;;;;;8.57;7.70;;;;;;;;;;4992041;28;20112;-78
2021/06/21 00:59:23;;;;;;;8.68;7.85;;;;;;;;;;4992214;28;20469;-79
2021/06/21 01:01:49;;;;;;;15.55;8.55;;;;;;;;;;5007329;28;20121;-79
2021/06/21 01:04:14;;;;;;;11.73;7.72;;;;;;;;;;4993319;28;20045;-78
2021/06/21 01:06:41;;;;;;;10.80;8.30;;;;;;;;;;4994515;28;20084;-79
2021/06/21 01:09:07;;;;;;;10.75;9.57;;;;;;;;;;4999188;28;20022;-78
2021/06/21 01:12:04;;;;;;;9.35;7.72;;;;;;;;;;4995723;28;20149;-77
2021/06/21 01:14:43;;;;;;;10.30;8.10;;;;;;;;;;4993310;28;20080;-78
2021/06/21 01:17:41;;;;;;;10.68;7.93;;;;;;;;;;4990622;28;20033;-79
2021/06/21 01:20:40;;;;;;;9.50;8.50;;;;;;;;;;4992533;28;20034;-78
2021/06/21 01:23:09;;;;;;;8.52;7.60;;;;;;;;;;4993642;28;20466;-78
2021/06/21 01:25:41;;;;;;;10.30;7.78;;;;;;;;;;4993007;28;20031;-77
2021/06/21 01:28:14;;;;;;;10.95;8.00;;;;;;;;;;4996256;28;20041;-78
2021/06/21 01:30:44;;;;;;;12.23;7.57;;;;;;;;;;4993404;28;20026;-78
2021/06/21 01:33:12;;;;;;;11.60;8.70;;;;;;;;;;4992977;28;20394;-76
2021/06/21 01:35:42;;;;;;;8.63;7.72;;;;;;;;;;4990366;28;20113;-79
2021/06/21 01:38:12;;;;;;;8.77;7.90;;;;;;;;;;4992566;28;20034;-79
2021/06/21 01:40:45;;;;;;;8.45;7.57;;;;;;;;;;4992541;28;20030;-78
2021/06/21 01:43:19;;;;;;;9.05;8.20;;;;;;;;;;5006279;28;20073;-78
2021/06/21 01:45:46;;;;;;;10.95;7.90;;;;;;;;;;4991743;28;20044;-78
2021/06/21 01:48:13;;;;;;;10.07;7.32;;;;;;;;;;4991552;28;20033;-77
2021/06/21 01:50:39;;;;;;;8.75;7.85;;;;;;;;;;4989962;28;20030;-78
2021/06/21 01:53:12;;;;;;;9.45;8.07;;;;;;;;;;4990980;28;20042;-78
2021/06/21 01:55:42;;;;;;;8.88;8.05;;;;;;;;;;5006379;28;20337;-79
2021/06/21 01:58:10;;;;;;;11.13;8.32;;;;;;;;;;4991835;28;20014;-78
2021/06/21 02:00:38;;;;;;;9.40;8.50;;;;;;;;;;5006079;28;20060;-78
2021/06/21 02:03:06;;;;;;;9.13;7.68;;;;;;;;;;4989857;28;20022;-79
2021/06/21 02:05:34;;;;;;;8.40;7.60;;;;;;;;;;4991834;28;20034;-78
2021/06/21 02:08:00;;;;;;;9.60;8.70;;;;;;;;;;5006587;28;20120;-78
2021/06/21 02:10:27;;;;;;;10.00;8.02;;;;;;;;;;4992350;28;20061;-78
2021/06/21 02:12:56;;;;;;;8.32;7.47;;;;;;;;;;4990801;28;20018;-78
2021/06/21 02:15:23;;;;;;;9.55;8.40;;;;;;;;;;4990892;28;20495;-78
2021/06/21 02:17:51;;;;;;;10.32;8.23;;;;;;;;;;4990717;28;20076;-77
2021/06/21 02:20:17;;;;;;;11.50;8.02;;;;;;;;;;4989246;28;20022;-77
2021/06/21 02:22:45;;;;;;;9.93;8.82;;;;;;;;;;4990887;28;20022;-77
2021/06/21 02:25:12;;;;;;;12.52;7.68;;;;;;;;;;4990717;28;20487;-78
2021/06/21 02:27:38;;;;;;;10.20;8.55;;;;;;;;;;4989464;28;20073;-78
2021/06/21 02:30:10;;;;;;;10.77;8.48;;;;;;;;;;4990745;28;20045;-78
2021/06/21 02:32:36;;;;;;;12.15;8.25;;;;;;;;;;5005356;28;20038;-78
2021/06/21 02:35:06;;;;;;;10.20;8.32;;;;;;;;;;5007166;28;20026;-79
2021/06/21 02:37:32;;;;;;;11.98;8.90;;;;;;;;;;5005224;28;20085;-78
2021/06/21 02:39:58;;;;;;;11.93;8.95;;;;;;;;;;4989627;28;20037;-78
2021/06/21 02:42:23;;;;;;;10.82;8.27;;;;;;;;;;4989570;28;20137;-78
2021/06/21 02:44:49;;;;;;;11.52;8.85;;;;;;;;;;4990364;28;20030;-78
2021/06/21 02:47:15;;;;;;;12.10;8.15;;;;;;;;;;4990073;28;20109;-76
2021/06/21 02:49:41;;;;;;;13.70;8.27;;;;;;;;;;4991413;28;20123;-77
2021/06/21 02:52:43;;;;;;;12.65;8.43;;;;;;;;;;4992045;28;20395;-78
2021/06/21 02:55:14;;;;;;;9.23;8.32;;;;;;;;;;4988029;28;20034;-77
2021/06/21 02:57:56;;;;;;;10.18;8.85;;;;;;;;;;4991694;28;20510;-78
2021/06/21 03:00:23;;;;;;;10.60;9.30;;;;;;;;;;4990534;28;20030;-78
2021/06/21 03:02:49;;;;;;;11.30;9.13;;;;;;;;;;4991076;28;20097;-77
2021/06/21 03:05:17;;;;;;;15.98;9.05;;;;;;;;;;4988753;28;20042;-76
2021/06/21 03:07:43;;;;;;;10.73;9.20;;;;;;;;;;4989566;28;20049;-78
2021/06/21 03:10:09;;;;;;;15.13;10.13;;;;;;;;;;4992278;28;20060;-77
2021/06/21 03:12:35;;;;;;;15.13;10.40;;;;;;;;;;4989720;28;20026;-77
2021/06/21 03:15:01;;;;;;;12.60;9.98;;;;;;;;;;4991962;28;20549;-78
2021/06/21 03:17:28;;;;;;;11.43;9.38;;;;;;;;;;4998022;28;20052;-78
2021/06/21 03:19:54;;;;;;;14.15;10.50;;;;;;;;;;4998398;28;20034;-79
2021/06/21 03:22:21;;;;;;;13.55;9.57;;;;;;;;;;4992635;28;20116;-78
2021/06/21 03:24:54;;;;;;;21.33;9.63;;;;;;;;;;4990582;28;20490;-78
2021/06/21 03:27:30;;;;;;;11.18;9.07;;;;;;;;;;4993804;28;20450;-76
2021/06/21 03:29:58;;;;;;;15.57;10.00;;;;;;;;;;4995187;28;20057;-79
2021/06/21 03:32:33;;;;;;;13.65;9.57;;;;;;;;;;4992062;28;20442;-77
2021/06/21 03:35:01;;;;;;;12.60;10.10;;;;;;;;;;4992592;28;20338;-78
2021/06/21 03:37:30;;;;;;;10.45;9.05;;;;;;;;;;4993896;28;20444;-79
2021/06/21 03:39:56;;;;;;;10.32;9.20;;;;;;;;;;4993777;28;20473;-78
2021/06/21 03:42:22;;;;;;;10.55;9.35;;;;;;;;;;4992198;28;20038;-79
2021/06/21 03:44:51;;;;;;;11.55;10.30;;;;;;;;;;4997464;28;20030;-77
2021/06/21 03:47:18;;;;;;;11.85;10.15;;;;;;;;;;5001199;28;20114;-78
2021/06/21 03:49:47;;;;;;;13.18;9.88;;;;;;;;;;4996505;28;20033;-77
2021/06/21 03:52:13;;;;;;;11.10;10.00;;;;;;;;;;4992816;28;20054;-79
2021/06/21 03:54:38;;;;;;;13.52;10.32;;;;;;;;;;4992641;28;20061;-79
2021/06/21 03:57:05;;;;;;;11.75;9.68;;;;;;;;;;4995109;28;20084;-78
2021/06/21 03:59:30;;;;;;;11.30;9.73;;;;;;;;;;4992865;28;20041;-77
2021/06/21 04:01:57;;;;;;;15.95;10.65;;;;;;;;;;4993439;28;20035;-78
2021/06/21 04:04:23;;;;;;;13.23;9.65;;;;;;;;;;5008500;28;20030;-78
2021/06/21 04:06:49;;;;;;;13.05;9.85;;;;;;;;;;4994029;28;20038;-77
2021/06/21 04:09:14;;;;;;;11.73;9.88;;;;;;;;;;4992793;28;20105;-77
2021/06/21 04:11:40;;;;;;;11.63;10.32;;;;;;;;;;4994220;28;20030;-78
2021/06/21 04:14:06;;;;;;;13.88;10.00;;;;;;;;;;4993112;28;20509;-78
2021/06/21 04:16:32;;;;;;;20.38;10.75;;;;;;;;;;4992317;28;20383;-78
2021/06/21 04:18:57;;;;;;;13.73;9.80;;;;;;;;;;4993375;28;20358;-80
2021/06/21 04:21:23;;;;;;;15.85;9.43;;;;;;;;;;4991848;28;20037;-79
2021/06/21 04:23:50;;;;;;;23.88;10.45;;;;;;;;;;4994837;28;20037;-77
2021/06/21 04:26:16;;;;;;;11.80;9.27;;;;;;;;;;4995694;28;20022;-78
2021/06/21 04:28:41;;;;;;;14.73;10.77;;;;;;;;;;5017026;28;20030;-79
2021/06/21 04:31:07;;;;;;;13.20;9.95;;;;;;;;;;5006713;28;20026;-79
2021/06/21 04:33:32;;;;;;;14.10;10.27;;;;;;;;;;5008422;28;20022;-78
2021/06/21 04:35:59;;;;;;;12.30;11.05;;;;;;;;;;5007272;28;20486;-79
2021/06/21 04:38:24;;;;;;;12.18;10.27;;;;;;;;;;4994975;28;20041;-78
2021/06/21 04:40:50;;;;;;;13.02;10.45;;;;;;;;;;4991405;28;20022;-77
2021/06/21 04:43:19;;;;;;;13.38;10.60;;;;;;;;;;4992750;28;20100;-78
2021/06/21 04:45:45;;;;;;;27.17;10.13;;;;;;;;;;4992650;28;20057;-79
2021/06/21 04:48:11;;;;;;;11.23;10.10;;;;;;;;;;4993375;28;20097;-78
2021/06/21 04:50:39;;;;;;;18.65;10.88;;;;;;;;;;4992515;28;20130;-78
2021/06/21 04:53:05;;;;;;;12.55;11.20;;;;;;;;;;4992291;28;20471;-77
2021/06/21 04:55:32;;;;;;;16.90;10.98;;;;;;;;;;4993112;28;20022;-80
2021/06/21 04:57:58;;;;;;;16.30;10.02;;;;;;;;;;4993020;28;20022;-79
2021/06/21 05:00:25;;;;;;;14.10;11.35;;;;;;;;;;4992650;28;20045;-79
2021/06/21 05:02:51;;;;;;;17.08;11.40;;;;;;;;;;4990476;28;20448;-79
2021/06/21 05:05:18;;;;;;;16.00;10.82;;;;;;;;;;4993151;28;20072;-79
2021/06/21 05:07:49;;;;;;;15.35;11.82;;;;;;;;;;4991983;28;20061;-80
2021/06/21 05:10:16;;;;;;;26.40;16.43;;;;;;;;;;4991924;28;20534;-80
2021/06/21 05:12:43;;;;;;;11.85;9.27;;;;;;;;;;4990349;28;20270;-78
2021/06/21 05:15:09;;;;;;;16.55;10.63;;;;;;;;;;4989986;28;20029;-78
2021/06/21 05:17:35;;;;;;;15.60;10.63;;;;;;;;;;4991667;28;20109;-79
2021/06/21 05:20:01;;;;;;;13.32;11.05;;;;;;;;;;5008178;28;20038;-78
2021/06/21 05:22:27;;;;;;;14.85;10.57;;;;;;;;;;4992191;28;20035;-78
2021/06/21 05:24:54;;;;;;;18.27;11.43;;;;;;;;;;5007277;28;20026;-75
2021/06/21 05:27:20;;;;;;;17.25;10.65;;;;;;;;;;4992640;28;20030;-75
2021/06/21 05:29:45;;;;;;;17.23;10.90;;;;;;;;;;4991380;28;20461;-74
2021/06/21 05:32:11;;;;;;;18.70;10.68;;;;;;;;;;5007404;28;20420;-75
2021/06/21 05:34:36;;;;;;;16.65;10.23;;;;;;;;;;4991664;28;20092;-74
2021/06/21 05:37:02;;;;;;;11.65;10.13;;;;;;;;;;4992066;28;20509;-75
2021/06/21 05:39:28;;;;;;;26.00;12.40;;;;;;;;;;5006829;28;20463;-76
2021/06/21 05:41:53;;;;;;;16.08;10.27;;;;;;;;;;4990608;28;20086;-75
2021/06/21 05:44:19;;;;;;;16.95;10.50;;;;;;;;;;5006885;28;20096;-75
2021/06/21 05:46:45;;;;;;;18.23;10.88;;;;;;;;;;4991483;28;20125;-75
2021/06/21 05:49:11;;;;;;;14.13;10.52;;;;;;;;;;4991847;28;20139;-76
2021/06/21 05:51:38;;;;;;;11.30;10.20;;;;;;;;;;4991583;28;20506;-74
2021/06/21 05:54:04;;;;;;;18.70;10.32;;;;;;;;;;4992256;28;20022;-77
2021/06/21 05:56:30;;;;;;;16.30;10.88;;;;;;;;;;5006597;28;20479;-75
2021/06/21 05:58:56;;;;;;;20.13;10.85;;;;;;;;;;4990800;28;20026;-76
2021/06/21 06:01:21;;;;;;;15.57;10.75;;;;;;;;;;4990167;28;20133;-74
2021/06/21 06:03:47;;;;;;;16.92;12.13;;;;;;;;;;4991744;28;20037;-75
2021/06/21 06:06:12;;;;;;;19.25;10.77;;;;;;;;;;4990322;28;20085;-77
2021/06/21 06:08:38;;;;;;;13.27;10.55;;;;;;;;;;4991633;28;20393;-74
2021/06/21 06:11:03;;;;;;;16.45;10.82;;;;;;;;;;4992024;28;20030;-74
2021/06/21 06:13:29;;;;;;;14.73;10.32;;;;;;;;;;4991616;28;20026;-75
2021/06/21 06:15:54;;;;;;;22.90;11.57;;;;;;;;;;4993818;28;20034;-76
2021/06/21 06:18:20;;;;;;;26.65;12.13;;;;;;;;;;5002484;28;20025;-75
2021/06/21 06:20:46;;;;;;;19.80;11.88;;;;;;;;;;5006444;28;20065;-75
2021/06/21 06:23:12;;;;;;;16.02;11.07;;;;;;;;;;4996858;28;20056;-75
2021/06/21 06:25:37;;;;;;;12.73;11.20;;;;;;;;;;5003145;28;20062;-75
2021/06/21 06:28:07;;;;;;;13.77;10.38;;;;;;;;;;5003410;28;20570;-76
2021/06/21 06:30:34;;;;;;;14.05;11.70;;;;;;;;;;5001603;28;20033;-76
2021/06/21 06:32:59;;;;;;;13.75;11.20;;;;;;;;;;5008001;28;20072;-75
2021/06/21 06:35:25;;;;;;;15.15;10.68;;;;;;;;;;5012508;28;20022;-76
2021/06/21 06:37:50;;;;;;;23.50;12.38;;;;;;;;;;4999601;28;20514;-75
2021/06/21 06:59:30;;;;;;;17.63;12.20;;;;;;;;;;5101377;28;20070;-77
2021/06/21 07:01:57;;;;;;;15.45;12.05;;;;;;;;;;5105689;28;20040;-75
2021/06/21 07:04:24;;;;;;;18.30;11.93;;;;;;;;;;5108543;28;20031;-77
2021/06/21 07:06:49;;;;;;;13.55;11.70;;;;;;;;;;5098794;28;20024;-76
2021/06/21 07:09:15;;;;;;;12.32;11.07;;;;;;;;;;5094934;28;20092;-76
2021/06/21 07:11:40;;;;;;;23.05;12.65;;;;;;;;;;5103718;28;20061;-76
2021/06/21 07:14:07;;;;;;;12.90;11.63;;;;;;;;;;5100243;28;20027;-77
2021/06/21 07:16:34;;;;;;;20.77;12.52;;;;;;;;;;5098354;28;20059;-77
2021/06/21 07:19:00;;;;;;;13.05;11.45;;;;;;;;;;5096879;28;20024;-76
2021/06/21 07:21:26;;;;;;;15.93;12.27;;;;;;;;;;5097717;28;20030;-76
2021/06/21 07:23:52;;;;;;;17.38;12.00;;;;;;;;;;5098275;28;20031;-77
2021/06/21 07:26:18;;;;;;;17.17;11.35;;;;;;;;;;5092154;28;20023;-77
2021/06/21 07:28:44;;;;;;;16.38;12.48;;;;;;;;;;5093923;28;20035;-76
2021/06/21 07:31:09;;;;;;;17.10;11.68;;;;;;;;;;5085738;28;20032;-76
2021/06/21 07:33:35;;;;;;;16.35;12.30;;;;;;;;;;5093059;28;20024;-77
2021/06/21 07:36:01;;;;;;;14.68;12.13;;;;;;;;;;5080706;28;20579;-76
2021/06/21 07:38:27;;;;;;;18.38;11.65;;;;;;;;;;5083543;28;20093;-78
2021/06/21 07:40:52;;;;;;;13.45;12.20;;;;;;;;;;5094592;28;20799;-78
2021/06/21 07:43:18;;;;;;;17.63;11.85;;;;;;;;;;5100689;28;20012;-77
2021/06/21 07:45:45;;;;;;;14.30;12.23;;;;;;;;;;5062872;28;20039;-77
2021/06/21 07:48:11;;;;;;;14.57;12.32;;;;;;;;;;5053524;28;20028;-76
2021/06/21 07:50:38;;;;;;;14.15;12.50;;;;;;;;;;5075037;28;20152;-76
2021/06/21 07:53:06;;;;;;;15.07;12.02;;;;;;;;;;5103486;28;20829;-76
2021/06/21 07:55:33;;;;;;;20.45;11.82;;;;;;;;;;5063346;28;20043;-77
2021/06/21 07:58:01;;;;;;;63.35;20.55;;;;;;;;;;5063535;28;20033;-78
2021/06/21 08:00:27;;;;;;;15.48;12.93;;;;;;;;;;5060138;28;20021;-80
2021/06/21 08:02:54;;;;;;;15.73;11.98;;;;;;;;;;5098661;28;20033;-79
2021/06/21 08:05:21;;;;;;;15.70;12.05;;;;;;;;;;5062502;28;20391;-78
2021/06/21 08:07:47;;;;;;;15.07;12.68;;;;;;;;;;5067661;28;20028;-80
2021/06/21 08:10:14;;;;;;;24.35;12.82;;;;;;;;;;5070973;28;20039;-77
2021/06/21 08:12:40;;;;;;;16.88;12.30;;;;;;;;;;5069132;28;20074;-77
2021/06/21 08:15:07;;;;;;;14.77;12.15;;;;;;;;;;5068445;28;20052;-78
2021/06/21 08:17:32;;;;;;;16.88;13.75;;;;;;;;;;5067302;28;20044;-77
2021/06/21 08:19:58;;;;;;;15.70;12.43;;;;;;;;;;5061984;28;20039;-79
2021/06/21 08:22:24;;;;;;;14.30;12.15;;;;;;;;;;5063798;28;20157;-77
2021/06/21 08:24:51;;;;;;;18.88;12.98;;;;;;;;;;5066218;28;20111;-77
2021/06/21 08:27:17;;;;;;;23.52;12.77;;;;;;;;;;5066957;28;20078;-78
2021/06/21 08:29:43;;;;;;;16.80;12.48;;;;;;;;;;5044360;28;20032;-77
2021/06/21 08:32:09;;;;;;;22.25;16.77;;;;;;;;;;5066258;28;20025;-76
2021/06/21 08:34:35;;;;;;;17.65;11.80;;;;;;;;;;5066287;28;20034;-78
2021/06/21 08:37:01;;;;;;;17.83;12.60;;;;;;;;;;5062990;28;20127;-79
2021/06/21 08:39:26;;;;;;;14.45;11.70;;;;;;;;;;5098664;27;20115;-76
2021/06/21 08:41:54;;;;;;;18.33;10.95;;;;;;;;;;5067228;28;20050;-79
2021/06/21 08:44:20;;;;;;;18.80;11.73;;;;;;;;;;5064232;28;20029;-78
2021/06/21 08:46:49;;;;;;;33.90;12.13;;;;;;;;;;5066175;28;20032;-76
2021/06/21 08:49:16;;;;;;;16.73;10.95;;;;;;;;;;5063049;28;20131;-77
2021/06/21 08:51:42;;;;;;;14.45;10.93;;;;;;;;;;5100332;27;20050;-77
2021/06/21 08:54:09;;;;;;;16.00;10.95;;;;;;;;;;5060967;28;20503;-77
2021/06/21 08:56:34;;;;;;;15.32;10.93;;;;;;;;;;5066869;28;20111;-77
2021/06/21 08:59:05;;;;;;;14.55;10.00;;;;;;;;;;5066708;28;20112;-76
2021/06/21 09:01:31;;;;;;;11.70;9.05;;;;;;;;;;5063801;28;20064;-78
2021/06/21 09:04:03;;;;;;;14.68;9.52;;;;;;;;;;5064516;28;20036;-79
2021/06/21 09:06:35;;;;;;;11.50;8.90;;;;;;;;;;5047564;28;20805;-79
2021/06/21 09:09:02;;;;;;;13.25;9.52;;;;;;;;;;5063783;28;20047;-78
2021/06/21 09:11:49;;;;;;;11.82;9.55;;;;;;;;;;5063700;28;20105;-77
2021/06/21 09:14:26;;;;;;;17.73;10.57;;;;;;;;;;5064040;28;20040;-78
2021/06/21 09:17:00;;;;;;;23.60;10.82;;;;;;;;;;5060096;28;20107;-78
2021/06/21 09:19:28;;;;;;;16.60;9.23;;;;;;;;;;5061458;28;20028;-76
2021/06/21 09:21:53;;;;;;;19.27;8.63;;;;;;;;;;5064275;28;20147;-77
2021/06/21 09:24:22;;;;;;;14.35;9.18;;;;;;;;;;5066093;28;20131;-78
2021/06/21 09:27:00;;;;;;;13.63;9.15;;;;;;;;;;5063941;28;20115;-78
2021/06/21 09:29:40;;;;;;;14.43;8.00;;;;;;;;;;5061281;28;20032;-79
2021/06/21 09:32:07;;;;;;;13.75;8.55;;;;;;;;;;5064769;28;20060;-77
2021/06/21 09:34:32;;;;;;;14.25;7.95;;;;;;;;;;5064981;28;20047;-78
2021/06/21 09:37:14;;;;;;;14.02;8.18;;;;;;;;;;5097228;28;20028;-78
2021/06/21 09:39:42;;;;;;;12.43;8.02;;;;;;;;;;5056554;28;20032;-78
2021/06/21 09:42:20;;;;;;;13.82;8.65;;;;;;;;;;5062133;28;20087;-78
2021/06/21 09:44:47;;;;;;;12.93;9.52;;;;;;;;;;5064316;28;20035;-76
2021/06/21 09:47:34;;;;;;;12.07;8.32;;;;;;;;;;5062418;28;20034;-78
2021/06/21 09:50:18;;;;;;;16.30;9.07;;;;;;;;;;5058987;28;20476;-78
2021/06/21 09:52:49;;;;;;;12.95;9.07;;;;;;;;;;5059417;28;20059;-78
2021/06/21 09:55:30;;;;;;;17.70;9.05;;;;;;;;;;5061325;28;20039;-77
2021/06/21 09:58:17;;;;;;;13.18;8.02;;;;;;;;;;5061070;28;20071;-77
2021/06/21 10:00:48;;;;;;;11.88;8.15;;;;;;;;;;5061952;28;20040;-78
2021/06/21 10:03:26;;;;;;;17.90;8.73;;;;;;;;;;5093418;28;20043;-77
2021/06/21 10:06:10;;;;;;;12.75;7.55;;;;;;;;;;5063666;28;20024;-77
2021/06/21 10:08:42;;;;;;;16.17;8.60;;;;;;;;;;5056140;28;20086;-78
2021/06/21 10:11:48;;;;;;;13.65;7.57;;;;;;;;;;5062526;28;20055;-77
2021/06/21 10:14:16;;;;;;;16.05;8.45;;;;;;;;;;5063432;28;20150;-77
2021/06/21 10:16:44;;;;;;;16.52;8.90;;;;;;;;;;5063299;28;20107;-77
2021/06/21 10:19:10;;;;;;;13.68;8.73;;;;;;;;;;5060895;28;20036;-76
2021/06/21 10:21:45;;;;;;;12.65;7.88;;;;;;;;;;5062387;28;20096;-78
2021/06/21 10:24:11;;;;;;;15.25;8.52;;;;;;;;;;5061570;28;20063;-75
2021/06/21 10:26:52;;;;;;;14.27;8.70;;;;;;;;;;5062709;28;20081;-78
2021/06/21 10:29:20;;;;;;;13.32;8.63;;;;;;;;;;5072859;28;20036;-76
2021/06/21 10:31:47;;;;;;;17.23;8.30;;;;;;;;;;5050007;28;20062;-78
2021/06/21 10:34:16;;;;;;;14.80;9.27;;;;;;;;;;5059617;28;20039;-76
2021/06/21 10:36:56;;;;;;;14.27;8.68;;;;;;;;;;5060579;28;20519;-76
2021/06/21 10:39:27;;;;;;;20.63;9.10;;;;;;;;;;5071006;28;20537;-77
2021/06/21 10:42:08;;;;;;;17.90;8.50;;;;;;;;;;5059714;28;20392;-77
2021/06/21 10:44:42;;;;;;;14.50;8.48;;;;;;;;;;5062480;28;20130;-78
2021/06/21 10:47:26;;;;;;;19.35;8.00;;;;;;;;;;5066996;28;20039;-77
2021/06/21 10:50:20;;;;;;;19.25;7.63;;;;;;;;;;5066622;28;20024;-78
2021/06/21 10:52:49;;;;;;;15.93;8.98;;;;;;;;;;5062340;28;20139;-79
2021/06/21 10:55:21;;;;;;;12.70;8.23;;;;;;;;;;5059706;28;20055;-79
2021/06/21 10:58:07;;;;;;;16.58;8.10;;;;;;;;;;5060698;28;20029;-80
2021/06/21 11:00:34;;;;;;;20.08;8.23;;;;;;;;;;5060094;28;20392;-76
2021/06/21 11:03:02;;;;;;;19.75;5.05;;;;;;;;;;5065088;28;20094;-78
2021/06/21 11:05:38;;;;;;;15.13;5.97;;;;;;;;;;5061755;28;20476;-79
2021/06/21 11:08:26;;;;;;;14.75;5.53;;;;;;;;;;5059673;28;20197;-78
2021/06/21 11:10:58;;;;;;;14.75;4.80;;;;;;;;;;5061900;28;20032;-77
2021/06/21 11:13:36;;;;;;;11.85;4.07;;;;;;;;;;5060531;28;20106;-77
2021/06/21 11:16:20;;;;;;;14.88;4.28;;;;;;;;;;5057914;28;20495;-77
2021/06/21 11:19:05;;;;;;;10.00;3.60;;;;;;;;;;5062803;28;20044;-78
2021/06/21 11:21:47;;;;;;;11.60;3.80;;;;;;;;;;5060998;28;20556;-78
2021/06/21 11:24:46;;;;;;;9.85;3.63;;;;;;;;;;5058470;28;20094;-78
2021/06/21 11:27:24;;;;;;;11.73;3.38;;;;;;;;;;5057956;28;20021;-78
2021/06/21 11:29:54;;;;;;;12.25;4.88;;;;;;;;;;5096463;28;20935;-78
2021/06/21 11:32:21;;;;;;;11.75;4.18;;;;;;;;;;5062824;28;20070;-77
2021/06/21 11:35:02;;;;;;;11.52;3.42;;;;;;;;;;5063969;28;20047;-77
2021/06/21 11:37:31;;;;;;;11.70;3.10;;;;;;;;;;5076262;28;20482;-77
2021/06/21 11:40:12;;;;;;;8.57;2.67;;;;;;;;;;5064843;28;20444;-78
2021/06/21 11:42:39;;;;;;;9.63;2.63;;;;;;;;;;5060999;28;20052;-77
2021/06/21 11:45:06;;;;;;;13.85;3.13;;;;;;;;;;5063870;28;20027;-78
2021/06/21 11:47:32;;;;;;;12.98;2.30;;;;;;;;;;5092339;27;20031;-77
2021/06/21 11:50:09;;;;;;;12.40;2.80;;;;;;;;;;5064201;28;20482;-79
2021/06/21 11:52:35;;;;;;;13.52;3.42;;;;;;;;;;5060410;28;20056;-78
2021/06/21 11:55:15;;;;;;;12.68;2.90;;;;;;;;;;5063916;28;20999;-77
2021/06/21 11:57:42;;;;;;;13.40;2.47;;;;;;;;;;5061136;28;20063;-78
2021/06/21 12:00:09;;;;;;;13.80;2.40;;;;;;;;;;5062071;28;20388;-77
2021/06/21 12:02:34;;;;;;;14.23;2.92;;;;;;;;;;5062889;28;20401;-77
2021/06/21 12:05:11;;;;;;;14.10;2.15;;;;;;;;;;5064149;28;20028;-77
2021/06/21 12:07:42;;;;;;;13.75;4.28;;;;;;;;;;5060053;28;20024;-77
2021/06/21 12:10:14;;;;;;;12.18;3.15;;;;;;;;;;5062015;28;20028;-76
2021/06/21 12:12:43;;;;;;;8.93;2.58;;;;;;;;;;5063830;28;20101;-79
2021/06/21 12:15:12;;;;;;;17.98;2.50;;;;;;;;;;5076682;28;20029;-78
2021/06/21 12:17:38;;;;;;;12.68;3.10;;;;;;;;;;5062473;28;20137;-79
2021/06/21 12:20:18;;;;;;;8.68;2.75;;;;;;;;;;5062368;28;20051;-77
2021/06/21 12:23:01;;;;;;;;;;;;;;;;;;5061054;28;20604;-77
2021/06/21 12:25:32;;;;;;;13.95;2.95;;;;;;;;;;5094248;27;20294;-77
2021/06/21 12:28:23;;;;;;;12.13;2.08;;;;;;;;;;5059924;28;20036;-77
2021/06/21 12:30:53;;;;;;;12.98;2.08;;;;;;;;;;5064260;28;20455;-78
2021/06/21 12:33:41;;;;;;;11.40;2.15;;;;;;;;;;5075124;28;20051;-78
2021/06/21 12:36:25;;;;;;;12.88;2.10;;;;;;;;;;5099727;27;20436;-78
2021/06/21 12:38:52;;;;;;;10.20;1.88;;;;;;;;;;5056002;28;20104;-78
2021/06/21 12:41:22;;;;;;;11.07;2.05;;;;;;;;;;5066833;28;20424;-78
2021/06/21 12:44:13;;;;;;;13.73;2.95;;;;;;;;;;5060528;28;20074;-79
2021/06/21 12:46:38;;;;;;;10.27;2.10;;;;;;;;;;5054772;28;20480;-77
2021/06/21 12:49:10;;;;;;;13.07;2.20;;;;;;;;;;5067483;28;20504;-78
2021/06/21 12:51:37;;;;;;;16.50;2.47;;;;;;;;;;5083943;28;20029;-78
2021/06/21 12:54:04;;;;;;;15.70;2.80;;;;;;;;;;5067816;28;20052;-78
2021/06/21 12:56:39;;;;;;;9.93;2.40;;;;;;;;;;5067460;28;20028;-77
2021/06/21 12:59:33;;;;;;;12.02;3.03;;;;;;;;;;5069528;28;20060;-77
2021/06/21 13:02:01;;;;;;;12.30;2.78;;;;;;;;;;5066076;28;20120;-77
2021/06/21 13:04:27;;;;;;;19.75;2.95;;;;;;;;;;5067036;28;20089;-78
2021/06/21 13:07:10;;;;;;;12.38;2.58;;;;;;;;;;5051749;28;20028;-79
2021/06/21 13:09:54;;;;;;;12.23;2.88;;;;;;;;;;5068092;28;20075;-78
2021/06/21 13:12:31;;;;;;;12.07;2.63;;;;;;;;;;5051994;28;20214;-78
2021/06/21 13:15:11;;;;;;;10.30;2.47;;;;;;;;;;5111822;28;20392;-77
2021/06/21 13:17:39;;;;;;;13.25;2.17;;;;;;;;;;5071665;28;20028;-78
2021/06/21 13:20:14;;;;;;;10.77;3.20;;;;;;;;;;5066862;28;20029;-76
2021/06/21 13:22:43;;;;;;;15.45;2.30;;;;;;;;;;5068115;28;20117;-79
2021/06/21 13:25:17;;;;;;;16.52;2.40;;;;;;;;;;5068886;28;20028;-80
2021/06/21 13:27:51;;;;;;;12.18;2.53;;;;;;;;;;5068729;28;20123;-77
2021/06/21 13:30:48;;;;;;;18.40;2.70;;;;;;;;;;5066795;28;20174;-77
2021/06/21 13:33:13;;;;;;;13.48;2.50;;;;;;;;;;5062944;28;20047;-77
2021/06/21 13:35:45;;;;;;;13.52;2.70;;;;;;;;;;5069189;28;20028;-78
2021/06/21 13:38:16;;;;;;;14.85;2.78;;;;;;;;;;5066563;28;20460;-78
2021/06/21 13:40:42;;;;;;;12.25;2.30;;;;;;;;;;5069935;28;20060;-78
2021/06/21 13:43:09;;;;;;;14.85;2.40;;;;;;;;;;5067573;28;20051;-77
2021/06/21 13:45:42;;;;;;;13.15;2.90;;;;;;;;;;5067178;28;20028;-79
2021/06/21 13:48:15;;;;;;;9.70;2.58;;;;;;;;;;5068415;28;20024;-79
2021/06/21 13:50:46;;;;;;;19.58;3.20;;;;;;;;;;5068030;28;20021;-77
2021/06/21 13:53:42;;;;;;;12.82;2.88;;;;;;;;;;5065158;28;20049;-77
2021/06/21 13:56:21;;;;;;;15.77;3.28;;;;;;;;;;5064229;28;20044;-79
2021/06/21 13:58:46;;;;;;;;;;;;;;;;;;5065554;28;20460;-76
2021/06/21 14:01:17;;;;;;;19.85;3.40;;;;;;;;;;5069450;28;19908;-77
2021/06/21 14:03:48;;;;;;;12.73;2.53;;;;;;;;;;5069755;28;20111;-78
2021/06/21 14:06:19;;;;;;;13.48;2.95;;;;;;;;;;5068333;28;20012;-77
2021/06/21 14:08:44;;;;;;;14.80;2.90;;;;;;;;;;5069627;28;20039;-78
2021/06/21 14:11:12;;;;;;;19.73;3.50;;;;;;;;;;5102064;28;20024;-78
2021/06/21 14:13:39;;;;;;;15.95;3.38;;;;;;;;;;5069261;28;20488;-77
2021/06/21 14:16:06;;;;;;;19.17;3.22;;;;;;;;;;5067116;28;20032;-77
2021/06/21 14:18:32;;;;;;;12.23;2.83;;;;;;;;;;5067895;28;20416;-78
2021/06/21 14:20:59;;;;;;;16.90;3.03;;;;;;;;;;5098954;28;20476;-77
2021/06/21 14:23:25;;;;;;;17.65;3.35;;;;;;;;;;5063386;28;20036;-78
2021/06/21 14:25:50;;;;;;;17.30;3.30;;;;;;;;;;5063585;28;20028;-79
2021/06/21 14:28:16;;;;;;;16.13;3.83;;;;;;;;;;5068738;28;20025;-79
2021/06/21 14:30:42;;;;;;;26.60;4.65;;;;;;;;;;5068017;28;20035;-79
2021/06/21 14:33:07;;;;;;;17.40;3.85;;;;;;;;;;5068069;28;20020;-78
2021/06/21 14:35:34;;;;;;;14.80;2.90;;;;;;;;;;5067748;28;20066;-77
2021/06/21 14:38:00;;;;;;;15.35;2.75;;;;;;;;;;5067839;28;20056;-78
2021/06/21 14:40:26;;;;;;;16.77;3.63;;;;;;;;;;5067437;28;20024;-78
2021/06/21 14:42:51;;;;;;;14.20;3.10;;;;;;;;;;4991076;28;20049;-78
2021/06/21 14:45:17;;;;;;;16.83;2.83;;;;;;;;;;5006261;28;20029;-77
2021/06/21 14:47:43;;;;;;;12.95;2.15;;;;;;;;;;5009886;28;20372;-77
2021/06/21 14:52:35;;;;;;;16.00;3.05;;;;;;;;;;5009694;28;20069;-78
2021/06/21 14:55:04;;;;;;;19.48;3.58;;;;;;;;;;5010033;28;20026;-78
2021/06/21 14:57:34;;;;;;;19.58;2.85;;;;;;;;;;5007977;28;20434;-78
2021/06/21 15:00:00;;;;;;;16.70;3.47;;;;;;;;;;5007508;28;20414;-79
2021/06/21 15:02:25;;;;;;;9.70;2.42;;;;;;;;;;5008111;28;20153;-77
2021/06/21 15:04:51;;;;;;;16.33;2.58;;;;;;;;;;4997108;28;20080;-79